Time;durP1;ratioP1;P1;durP2;ratioP2;P2;SDS_P1;SDS_P2;PMS_P1;PMS_P2;Temp;Humidity;BMP_temperature;BMP_pressure;BME280_temperature;BME280_humidity;BME280_pressure;Samples;Min_cycle;Max_cycle;Signal;HPM_P1;HPM_P2
2021/03/14 00:00:30;;;;;;;109.13;59.13;;;128.90;2252.80;;;;;;5009757;28;20491;-70
2021/03/14 00:02:57;;;;;;;78.30;45.90;;;128.80;2252.80;;;;;;5009942;28;20032;-71
2021/03/14 00:05:23;;;;;;;79.85;47.03;;;128.80;2252.80;;;;;;5010762;28;20105;-71
2021/03/14 00:07:49;;;;;;;77.53;45.83;;;128.80;2252.80;;;;;;5005700;28;20557;-70
2021/03/14 00:10:15;;;;;;;72.63;43.70;;;128.70;2252.80;;;;;;5010549;28;20022;-70
2021/03/14 00:12:41;;;;;;;72.60;42.10;;;128.70;2252.80;;;;;;5008678;28;20486;-71
2021/03/14 00:15:08;;;;;;;72.47;43.58;;;128.70;2252.80;;;;;;5010996;28;20030;-72
2021/03/14 00:17:35;;;;;;;77.10;44.20;;;128.60;2252.80;;;;;;5010466;28;20041;-71
2021/03/14 00:20:01;;;;;;;78.57;45.30;;;128.50;2252.80;;;;;;5010347;28;20390;-71
2021/03/14 00:22:27;;;;;;;71.07;44.33;;;128.50;2252.80;;;;;;5010764;28;20018;-70
2021/03/14 00:24:52;;;;;;;77.65;45.50;;;128.50;2252.80;;;;;;5010856;28;20028;-72
2021/03/14 00:27:18;;;;;;;81.75;44.83;;;128.50;2252.80;;;;;;5010755;28;20048;-71
2021/03/14 00:29:44;;;;;;;79.15;44.10;;;128.50;2252.80;;;;;;5010412;28;20017;-72
2021/03/14 00:32:09;;;;;;;73.32;42.28;;;128.50;2252.80;;;;;;5010945;28;20030;-72
2021/03/14 00:34:35;;;;;;;67.88;40.75;;;128.40;2252.80;;;;;;5010476;28;20057;-71
2021/03/14 00:37:01;;;;;;;72.18;41.33;;;128.40;2252.80;;;;;;5011477;28;20075;-74
2021/03/14 00:39:26;;;;;;;73.97;42.55;;;128.40;2252.80;;;;;;5010257;28;20475;-72
2021/03/14 00:41:52;;;;;;;78.30;45.25;;;128.40;2252.80;;;;;;5010697;28;20025;-72
2021/03/14 00:44:18;;;;;;;92.45;51.13;;;128.30;2252.80;;;;;;5010518;28;20054;-72
2021/03/14 00:46:44;;;;;;;89.50;50.58;;;128.20;2252.80;;;;;;5011055;28;20026;-71
2021/03/14 00:49:22;;;;;;;88.72;52.00;;;128.20;2252.80;;;;;;5009868;28;20034;-71
2021/03/14 00:51:49;;;;;;;74.50;43.97;;;128.20;2252.80;;;;;;5008654;28;20501;-72
2021/03/14 00:54:15;;;;;;;80.82;47.90;;;128.10;2252.80;;;;;;5007830;28;20030;-72
2021/03/14 00:56:40;;;;;;;84.30;49.95;;;128.10;2252.80;;;;;;5009329;28;20028;-72
2021/03/14 00:59:06;;;;;;;83.43;48.40;;;128.10;2252.80;;;;;;5008582;28;20474;-72
2021/03/14 01:01:32;;;;;;;81.55;47.00;;;128.10;2252.80;;;;;;5009627;28;20022;-71
2021/03/14 01:03:58;;;;;;;80.22;46.42;;;128.10;2252.80;;;;;;5007090;28;20053;-72
2021/03/14 01:06:24;;;;;;;71.75;43.58;;;128.10;2252.80;;;;;;5009352;28;20466;-75
2021/03/14 01:08:50;;;;;;;76.95;44.55;;;128.00;2252.80;;;;;;5008769;28;20113;-73
2021/03/14 01:11:16;;;;;;;82.43;47.28;;;128.00;2252.80;;;;;;5008880;28;20030;-72
2021/03/14 01:13:42;;;;;;;76.45;45.67;;;128.00;2252.80;;;;;;5009226;28;20026;-71
2021/03/14 01:16:08;;;;;;;83.30;47.45;;;103.30;2227.20;;;;;;5008740;28;20049;-71
2021/03/14 01:18:34;;;;;;;67.35;41.22;;;103.30;2227.20;;;;;;5008800;28;20038;-69
2021/03/14 01:20:59;;;;;;;77.63;43.28;;;103.30;2227.20;;;;;;4999890;28;20096;-71
2021/03/14 01:23:25;;;;;;;81.53;45.03;;;103.30;2227.20;;;;;;4995154;28;20023;-70
2021/03/14 01:25:51;;;;;;;80.25;42.65;;;103.30;2227.20;;;;;;4991391;28;20031;-72
2021/03/14 01:28:16;;;;;;;76.63;42.03;;;103.20;2227.20;;;;;;4999562;28;20045;-70
2021/03/14 01:30:42;;;;;;;61.88;37.08;;;103.20;2227.20;;;;;;5000854;28;20057;-70
2021/03/14 01:33:08;;;;;;;49.17;31.85;;;103.20;2227.20;;;;;;4999579;28;20034;-71
2021/03/14 01:35:34;;;;;;;55.97;32.85;;;103.20;2227.20;;;;;;4998825;28;21410;-71
2021/03/14 01:38:00;;;;;;;64.70;37.30;;;103.20;2227.20;;;;;;5001585;28;20483;-74
2021/03/14 01:40:26;;;;;;;62.53;35.60;;;103.10;2227.20;;;;;;4996914;28;20029;-75
2021/03/14 01:42:52;;;;;;;58.33;34.95;;;103.10;2227.20;;;;;;4998488;28;20443;-70
2021/03/14 01:45:18;;;;;;;50.60;31.38;;;103.00;2227.20;;;;;;5012294;28;20053;-71
2021/03/14 01:47:49;;;;;;;57.28;33.50;;;103.00;2227.20;;;;;;5012310;28;20026;-70
2021/03/14 01:50:18;;;;;;;43.00;27.50;;;103.00;2227.20;;;;;;5011681;28;20427;-73
2021/03/14 01:52:46;;;;;;;44.38;28.20;;;103.00;2227.20;;;;;;5011294;28;20076;-72
2021/03/14 01:55:14;;;;;;;44.90;28.35;;;103.00;2227.20;;;;;;5011533;28;20018;-72
2021/03/14 01:57:40;;;;;;;49.67;29.70;;;103.00;2227.20;;;;;;5010979;28;20033;-70
2021/03/14 02:00:19;;;;;;;47.40;27.95;;;103.10;2227.20;;;;;;5012693;28;20238;-70
2021/03/14 02:02:46;;;;;;;47.90;28.05;;;103.10;2227.20;;;;;;5014003;28;20033;-72
2021/03/14 02:05:14;;;;;;;44.80;26.88;;;103.00;2227.20;;;;;;5012563;28;20018;-71
2021/03/14 02:07:42;;;;;;;40.05;25.48;;;103.00;2227.20;;;;;;5013547;28;20030;-70
2021/03/14 02:10:11;;;;;;;36.63;24.10;;;103.00;2227.20;;;;;;5012349;28;20034;-71
2021/03/14 02:12:52;;;;;;;39.70;24.70;;;103.00;2227.20;;;;;;5012079;28;20368;-70
2021/03/14 02:15:19;;;;;;;44.10;26.80;;;103.10;2227.20;;;;;;5012556;28;20041;-70
2021/03/14 02:17:48;;;;;;;34.60;23.10;;;103.10;2227.20;;;;;;5013287;28;20510;-70
2021/03/14 02:20:18;;;;;;;30.30;20.90;;;103.10;2227.20;;;;;;5012291;28;20026;-70
2021/03/14 02:22:46;;;;;;;31.42;20.80;;;103.10;2227.20;;;;;;5013158;28;20022;-70
2021/03/14 02:25:26;;;;;;;30.67;19.75;;;103.10;2227.20;;;;;;5012588;28;20026;-71
2021/03/14 02:27:52;;;;;;;31.75;21.23;;;103.20;2227.20;;;;;;5012815;28;20026;-70
2021/03/14 02:30:20;;;;;;;29.20;19.00;;;103.20;2227.20;;;;;;5012320;28;20073;-70
2021/03/14 02:32:47;;;;;;;30.17;18.55;;;103.20;2227.20;;;;;;5012948;28;20479;-70
2021/03/14 02:35:15;;;;;;;27.23;18.08;;;103.20;2227.20;;;;;;5012540;28;20049;-68
2021/03/14 02:37:43;;;;;;;26.67;17.58;;;103.20;2227.20;;;;;;5012742;28;20076;-70
2021/03/14 02:40:10;;;;;;;28.58;18.55;;;103.10;2227.20;;;;;;5012520;28;20018;-71
2021/03/14 02:42:38;;;;;;;28.80;16.77;;;103.00;2227.20;;;;;;5012229;28;20025;-70
2021/03/14 02:45:06;;;;;;;26.10;17.48;;;102.90;2227.20;;;;;;5012385;28;20097;-74
2021/03/14 02:47:32;;;;;;;27.42;16.92;;;102.80;2227.20;;;;;;5012347;28;20104;-70
2021/03/14 02:49:59;;;;;;;27.17;16.70;;;102.70;2227.20;;;;;;5012341;28;20040;-70
2021/03/14 02:52:25;;;;;;;24.27;16.40;;;102.60;2227.20;;;;;;5012558;28;20037;-70
2021/03/14 02:54:52;;;;;;;24.90;15.52;;;102.60;2227.20;;;;;;5012308;28;20037;-70
2021/03/14 02:57:22;;;;;;;25.98;15.20;;;102.50;2227.20;;;;;;5012412;28;20022;-71
2021/03/14 02:59:53;;;;;;;30.33;17.80;;;102.50;2227.20;;;;;;5011806;28;20537;-70
2021/03/14 03:02:19;;;;;;;32.55;18.88;;;102.40;2227.20;;;;;;5012224;28;20084;-70
2021/03/14 03:04:48;;;;;;;42.20;25.10;;;102.40;2227.20;;;;;;5012412;28;20022;-73
2021/03/14 03:07:16;;;;;;;38.83;23.30;;;77.70;2227.20;;;;;;5011800;28;20030;-74
2021/03/14 03:09:45;;;;;;;30.88;19.05;;;77.70;2227.20;;;;;;5012057;28;20030;-74
2021/03/14 03:12:12;;;;;;;35.13;22.20;;;77.70;2227.20;;;;;;5011677;28;20061;-71
2021/03/14 03:14:39;;;;;;;37.25;22.95;;;77.60;2227.20;;;;;;5012256;28;20375;-71
2021/03/14 03:17:05;;;;;;;57.28;30.95;;;77.40;2227.20;;;;;;5011686;28;20030;-70
2021/03/14 03:19:31;;;;;;;39.92;24.10;;;77.40;2227.20;;;;;;5011670;28;20483;-70
2021/03/14 03:21:57;;;;;;;42.63;25.52;;;77.30;2227.20;;;;;;5011626;28;20104;-70
2021/03/14 03:24:23;;;;;;;49.45;27.45;;;77.20;2227.20;;;;;;5012021;28;20030;-70
2021/03/14 03:26:50;;;;;;;40.08;24.13;;;77.20;2227.20;;;;;;5011884;28;20084;-69
2021/03/14 03:29:18;;;;;;;42.05;24.15;;;77.30;2227.20;;;;;;5011318;28;20060;-71
2021/03/14 03:31:46;;;;;;;32.72;21.45;;;77.40;2227.20;;;;;;5011997;28;20028;-71
2021/03/14 03:34:13;;;;;;;35.80;22.13;;;77.50;2227.20;;;;;;5011508;28;20549;-71
2021/03/14 03:36:40;;;;;;;35.60;22.60;;;77.40;2227.20;;;;;;5011692;28;20026;-70
2021/03/14 03:39:12;;;;;;;26.83;17.23;;;77.50;2227.20;;;;;;5011176;28;20368;-70
2021/03/14 03:41:47;;;;;;;35.00;20.13;;;77.50;2227.20;;;;;;5011740;28;20054;-70
2021/03/14 03:44:14;;;;;;;27.98;16.90;;;77.60;2227.20;;;;;;5011353;28;20485;-70
2021/03/14 03:46:41;;;;;;;26.35;16.55;;;77.60;2227.20;;;;;;5011662;28;20386;-70
2021/03/14 03:49:10;;;;;;;26.48;17.13;;;77.60;2227.20;;;;;;5010904;28;20459;-71
2021/03/14 03:51:37;;;;;;;32.63;18.77;;;77.70;2227.20;;;;;;5011627;28;20076;-70
2021/03/14 03:54:05;;;;;;;31.08;18.27;;;77.70;2227.20;;;;;;5002890;28;20061;-73
2021/03/14 03:56:31;;;;;;;26.73;15.45;;;102.40;2227.20;;;;;;5011114;28;20093;-72
2021/03/14 03:59:00;;;;;;;28.63;17.55;;;102.40;2227.20;;;;;;5010779;28;20022;-70
2021/03/14 04:01:27;;;;;;;29.75;17.17;;;102.40;2227.20;;;;;;5011565;28;20502;-71
2021/03/14 04:03:54;;;;;;;31.02;18.85;;;102.40;2227.20;;;;;;5010224;28;20022;-71
2021/03/14 04:06:23;;;;;;;32.58;18.63;;;102.40;2227.20;;;;;;5011360;28;20026;-71
2021/03/14 04:08:49;;;;;;;31.13;18.52;;;77.70;2227.20;;;;;;5010635;28;20026;-71
2021/03/14 04:11:18;;;;;;;31.73;18.63;;;77.70;2227.20;;;;;;5011170;28;20030;-70
2021/03/14 04:13:46;;;;;;;29.77;17.15;;;77.60;2227.20;;;;;;5010982;28;20177;-70
2021/03/14 04:16:13;;;;;;;25.00;16.33;;;77.60;2227.20;;;;;;5011114;28;20026;-72
2021/03/14 04:18:40;;;;;;;29.13;18.13;;;77.60;2227.20;;;;;;5010444;28;20066;-71
2021/03/14 04:21:08;;;;;;;27.23;18.77;;;77.70;2227.20;;;;;;5011355;28;20084;-70
2021/03/14 04:23:36;;;;;;;28.27;18.90;;;77.70;2227.20;;;;;;5011270;28;20025;-72
2021/03/14 04:26:03;;;;;;;27.33;18.45;;;77.70;2227.20;;;;;;5010890;28;20018;-71
2021/03/14 04:28:32;;;;;;;26.08;17.60;;;77.70;2227.20;;;;;;5010730;28;20033;-71
2021/03/14 04:30:59;;;;;;;36.85;22.30;;;77.70;2227.20;;;;;;5010962;28;20028;-71
2021/03/14 04:33:27;;;;;;;70.10;36.55;;;77.70;2227.20;;;;;;5011255;28;20057;-70
2021/03/14 04:35:57;;;;;;;79.18;43.38;;;77.60;2227.20;;;;;;5010816;28;20061;-70
2021/03/14 04:38:25;;;;;;;30.70;19.20;;;77.60;2227.20;;;;;;5011253;28;20026;-70
2021/03/14 04:40:53;;;;;;;29.85;18.67;;;77.50;2227.20;;;;;;5010308;28;20060;-71
2021/03/14 04:43:21;;;;;;;33.60;19.92;;;77.30;2227.20;;;;;;5011061;28;20018;-70
2021/03/14 04:45:48;;;;;;;34.78;19.58;;;77.30;2227.20;;;;;;5010758;28;20025;-70
2021/03/14 04:48:17;;;;;;;36.88;20.08;;;77.20;2227.20;;;;;;5011171;28;20422;-71
2021/03/14 04:50:44;;;;;;;36.92;19.83;;;77.20;2227.20;;;;;;5010295;28;20105;-71
2021/03/14 04:53:11;;;;;;;32.72;19.45;;;77.30;2227.20;;;;;;5010857;28;20498;-71
2021/03/14 04:55:39;;;;;;;34.33;18.73;;;77.30;2227.20;;;;;;5010267;28;20029;-71
2021/03/14 04:58:07;;;;;;;30.65;18.60;;;77.40;2227.20;;;;;;5010991;28;20053;-71
2021/03/14 05:00:34;;;;;;;32.08;18.08;;;77.50;2227.20;;;;;;5009969;28;20022;-72
2021/03/14 05:03:01;;;;;;;34.17;20.02;;;77.50;2227.20;;;;;;5010832;28;20405;-71
2021/03/14 05:05:27;;;;;;;34.03;19.65;;;77.50;2227.20;;;;;;5011069;28;20022;-72
2021/03/14 05:07:54;;;;;;;29.58;17.70;;;77.50;2227.20;;;;;;5014422;28;20467;-71
2021/03/14 05:10:22;;;;;;;31.00;18.67;;;77.60;2227.20;;;;;;5013994;28;20030;-70
2021/03/14 05:12:49;;;;;;;35.22;19.58;;;77.70;2227.20;;;;;;5014786;28;20022;-72
2021/03/14 05:15:16;;;;;;;32.20;20.23;;;102.40;2227.20;;;;;;5014395;28;20037;-71
2021/03/14 05:17:44;;;;;;;33.13;20.70;;;102.50;2227.20;;;;;;5013900;28;20022;-71
2021/03/14 05:20:12;;;;;;;32.10;20.33;;;102.70;2227.20;;;;;;5014015;28;20026;-72
2021/03/14 05:22:40;;;;;;;36.95;20.90;;;103.10;2227.20;;;;;;5013996;28;20054;-71
2021/03/14 05:25:07;;;;;;;32.80;19.08;;;128.10;2252.80;;;;;;5014074;28;20022;-70
2021/03/14 05:27:35;;;;;;;31.67;17.27;;;128.60;2252.80;;;;;;5014005;28;20038;-71
2021/03/14 05:30:01;;;;;;;30.08;17.65;;;153.70;2252.80;;;;;;5013627;28;20029;-71
2021/03/14 05:32:27;;;;;;;28.45;17.17;;;154.10;2252.80;;;;;;5013852;28;20034;-72
2021/03/14 05:34:56;;;;;;;34.08;19.35;;;154.50;2252.80;;;;;;5013687;28;20040;-72
2021/03/14 05:37:21;;;;;;;34.08;19.88;;;179.40;2252.80;;;;;;5013553;28;20038;-71
2021/03/14 05:39:47;;;;;;;31.55;19.88;;;179.30;2252.80;;;;;;5013532;28;20395;-72
2021/03/14 05:42:14;;;;;;;28.75;17.40;;;154.50;2252.80;;;;;;5013426;28;20530;-72
2021/03/14 05:44:40;;;;;;;38.30;21.45;;;154.30;2252.80;;;;;;5013792;28;20475;-72
2021/03/14 05:47:07;;;;;;;36.60;22.85;;;154.30;2252.80;;;;;;5013248;28;20049;-71
2021/03/14 05:49:33;;;;;;;31.00;19.95;;;154.40;2252.80;;;;;;5013648;28;20029;-72
2021/03/14 05:51:59;;;;;;;25.88;16.00;;;154.50;2252.80;;;;;;5013245;28;20026;-71
2021/03/14 05:54:26;;;;;;;29.05;18.23;;;179.30;2252.80;;;;;;5013562;28;20025;-70
2021/03/14 05:56:52;;;;;;;23.58;15.90;;;179.30;2252.80;;;;;;5012886;28;20041;-71
2021/03/14 05:59:19;;;;;;;24.35;15.25;;;179.30;2252.80;;;;;;5013295;28;20021;-72
2021/03/14 06:01:50;;;;;;;26.52;16.75;;;179.30;2252.80;;;;;;5013223;28;20048;-72
2021/03/14 06:04:17;;;;;;;25.40;16.27;;;179.20;2252.80;;;;;;5013349;28;20025;-71
2021/03/14 06:06:43;;;;;;;27.08;18.27;;;154.50;2252.80;;;;;;5013438;28;20030;-72
2021/03/14 06:09:11;;;;;;;24.48;15.80;;;154.40;2252.80;;;;;;5012700;28;20030;-72
2021/03/14 06:11:37;;;;;;;26.83;16.67;;;154.40;2252.80;;;;;;5013492;28;20064;-72
2021/03/14 06:14:03;;;;;;;28.55;17.90;;;154.40;2252.80;;;;;;5013061;28;20026;-72
2021/03/14 06:16:29;;;;;;;25.83;17.50;;;154.40;2252.80;;;;;;5012982;28;20109;-73
2021/03/14 06:18:56;;;;;;;40.63;22.00;;;154.40;2252.80;;;;;;5010836;28;20674;-73
2021/03/14 06:21:30;;;;;;;47.85;25.60;;;179.20;2252.80;;;;;;5013172;28;20029;-71
2021/03/14 06:23:57;;;;;;;32.28;19.42;;;179.30;2252.80;;;;;;5012859;28;20105;-72
2021/03/14 06:26:39;;;;;;;30.08;19.95;;;179.40;2252.80;;;;;;5012975;28;20080;-71
2021/03/14 06:29:23;;;;;;;23.88;17.23;;;179.70;2252.80;;;;;;5012462;28;20042;-72
2021/03/14 06:31:55;;;;;;;25.50;16.75;;;179.90;2252.80;;;;;;5013139;28;20025;-72
2021/03/14 06:34:38;;;;;;;25.83;17.02;;;179.90;2252.80;;;;;;5012714;28;20076;-72
2021/03/14 06:37:06;;;;;;;26.95;17.40;;;180.00;2252.80;;;;;;5012816;28;20037;-71
2021/03/14 06:39:34;;;;;;;31.17;21.00;;;180.00;2252.80;;;;;;5012286;28;20486;-72
2021/03/14 06:41:59;;;;;;;33.22;21.20;;;180.00;2252.80;;;;;;4999542;28;20549;-71
2021/03/14 06:44:30;;;;;;;26.13;16.63;;;204.80;2252.80;;;;;;5012598;28;20022;-72
2021/03/14 06:46:58;;;;;;;33.75;20.08;;;230.80;2252.80;;;;;;5012605;28;20052;-72
2021/03/14 06:49:26;;;;;;;29.17;18.73;;;307.20;2124.80;;;;;;5012627;28;20022;-71
2021/03/14 06:51:59;;;;;;;30.25;18.92;;;358.80;1843.20;;;;;;5012334;28;20056;-72
2021/03/14 06:54:29;;;;;;;29.42;20.02;;;409.90;1612.80;;;;;;5012268;28;20050;-72
2021/03/14 06:57:15;;;;;;;33.92;24.48;;;461.10;1484.80;;;;;;5010990;28;20430;-73
2021/03/14 06:59:47;;;;;;;33.25;22.55;;;487.10;1331.20;;;;;;5011835;28;20078;-73
2021/03/14 07:02:14;;;;;;;33.80;23.17;;;487.10;1305.60;;;;;;5012199;28;20040;-73
2021/03/14 07:04:43;;;;;;;44.70;29.73;;;512.20;1280.00;;;;;;5012067;28;20018;-73
2021/03/14 07:07:18;;;;;;;33.75;23.77;;;461.20;1382.40;;;;;;5012238;28;20113;-73
2021/03/14 07:09:45;;;;;;;36.38;27.23;;;487.20;1331.20;;;;;;5011903;28;20036;-74
2021/03/14 07:12:18;;;;;;;29.92;22.52;;;538.10;1228.80;;;;;;5012286;28;20026;-74
2021/03/14 07:14:44;;;;;;;27.15;22.38;;;563.40;1203.20;;;;;;5011797;28;20471;-73
2021/03/14 07:17:10;;;;;;;51.67;38.25;;;589.10;1152.00;;;;;;5012255;28;20112;-73
2021/03/14 07:19:38;;;;;;;33.97;26.55;;;614.80;1075.20;;;;;;5011197;28;20041;-74
2021/03/14 07:22:10;;;;;;;26.33;23.33;;;640.00;1024.00;;;;;;5012053;28;20029;-73
2021/03/14 07:24:43;;;;;;;25.25;22.00;;;640.20;1024.00;;;;;;5011627;28;20040;-73
2021/03/14 07:27:11;;;;;;;22.60;17.15;;;615.10;1024.00;;;;;;5011865;28;20053;-73
2021/03/14 07:29:39;;;;;;;24.90;20.77;;;615.00;1049.60;;;;;;5010713;28;20021;-72
2021/03/14 07:32:08;;;;;;;28.83;24.63;;;640.10;1024.00;;;;;;5011600;28;20026;-73
2021/03/14 07:34:34;;;;;;;18.70;16.07;;;665.80;998.40;;;;;;5011724;28;20022;-74
2021/03/14 07:37:01;;;;;;;18.05;16.15;;;640.00;1024.00;;;;;;5011657;28;20453;-74
2021/03/14 07:39:27;;;;;;;22.40;17.33;;;615.20;1024.00;;;;;;5011595;28;20048;-74
2021/03/14 07:41:53;;;;;;;18.73;15.45;;;640.90;998.40;;;;;;5011353;28;20021;-74
2021/03/14 07:44:20;;;;;;;21.98;16.85;;;640.70;998.40;;;;;;5011897;28;20161;-73
2021/03/14 07:46:46;;;;;;;21.73;16.45;;;640.60;998.40;;;;;;5011055;28;20014;-73
2021/03/14 07:49:15;;;;;;;23.05;18.73;;;640.70;1024.00;;;;;;5011630;28;20056;-73
2021/03/14 07:51:47;;;;;;;22.33;18.58;;;666.50;998.40;;;;;;5011018;28;20099;-73
2021/03/14 07:54:43;;;;;;;22.10;17.42;;;665.90;998.40;;;;;;5011637;28;20365;-74
2021/03/14 07:57:11;;;;;;;20.20;16.52;;;666.50;998.40;;;;;;5010803;28;20379;-73
2021/03/14 07:59:37;;;;;;;18.95;15.65;;;691.80;947.20;;;;;;5011352;28;20029;-73
2021/03/14 08:02:18;;;;;;;22.23;16.83;;;742.60;921.60;;;;;;5011208;28;20021;-73
2021/03/14 08:05:01;;;;;;;20.50;16.98;;;743.10;921.60;;;;;;4999419;28;20026;-73
2021/03/14 08:07:33;;;;;;;21.10;17.25;;;716.90;947.20;;;;;;5010724;28;20079;-73
2021/03/14 08:10:00;;;;;;;21.00;17.30;;;615.10;1049.60;;;;;;5011294;28;20387;-73
2021/03/14 08:12:33;;;;;;;20.48;16.05;;;589.30;1126.40;;;;;;5010785;28;20025;-73
2021/03/14 08:14:59;;;;;;;17.08;13.02;;;538.10;1203.20;;;;;;5011413;28;20045;-73
2021/03/14 08:17:36;;;;;;;48.67;24.83;;;563.60;1203.20;;;;;;5009677;28;20483;-72
2021/03/14 08:20:04;;;;;;;24.55;18.15;;;588.80;1152.00;;;;;;5011262;28;20426;-72
2021/03/14 08:22:39;;;;;;;17.67;12.98;;;589.70;1126.40;;;;;;5010695;28;20480;-72
2021/03/14 08:25:25;;;;;;;20.98;13.95;;;615.00;1075.20;;;;;;4999960;28;20026;-72
2021/03/14 08:27:55;;;;;;;16.25;11.32;;;665.90;1049.60;;;;;;5010185;28;20029;-72
2021/03/14 08:30:30;;;;;;;15.65;12.18;;;614.90;1075.20;;;;;;5011387;28;20032;-72
2021/03/14 08:33:26;;;;;;;16.23;12.88;;;640.90;1024.00;;;;;;5010616;28;20072;-72
2021/03/14 08:35:57;;;;;;;15.23;11.65;;;716.80;972.80;;;;;;5001964;28;20038;-72
2021/03/14 08:38:29;;;;;;;16.55;11.88;;;742.80;947.20;;;;;;5010399;28;20022;-74
2021/03/14 08:41:17;;;;;;;16.80;11.68;;;742.50;921.60;;;;;;5010264;28;20030;-73
2021/03/14 08:43:44;;;;;;;18.42;11.93;;;768.40;870.40;;;;;;5002700;28;20029;-73
2021/03/14 08:46:10;;;;;;;13.25;10.27;;;819.40;844.80;;;;;;5014497;28;20030;-74
2021/03/14 08:48:37;;;;;;;12.50;9.15;;;844.90;870.40;;;;;;5013450;28;20105;-73
2021/03/14 08:51:07;;;;;;;12.43;8.63;;;870.40;844.80;;;;;;5014877;28;20038;-73
2021/03/14 08:53:34;;;;;;;11.73;7.72;;;870.50;844.80;;;;;;5014157;28;20441;-74
2021/03/14 08:56:00;;;;;;;12.68;8.13;;;870.50;819.20;;;;;;5014715;28;20402;-74
2021/03/14 08:58:26;;;;;;;11.90;8.10;;;845.30;844.80;;;;;;5002388;28;20455;-74
2021/03/14 09:01:11;;;;;;;10.98;7.25;;;871.10;793.60;;;;;;5014569;28;20085;-74
2021/03/14 09:03:41;;;;;;;9.05;6.25;;;871.00;768.00;;;;;;5013821;28;20030;-74
2021/03/14 09:06:13;;;;;;;;;;;844.80;819.20;;;;;;5013556;28;20029;-74
2021/03/14 09:09:11;;;;;;;7.60;6.00;;;820.10;819.20;;;;;;5013868;28;19913;-73
2021/03/14 09:11:44;;;;;;;8.98;6.18;;;820.00;819.20;;;;;;5014340;28;20037;-73
2021/03/14 09:14:24;;;;;;;8.27;5.50;;;794.00;844.80;;;;;;5014055;28;20399;-73
2021/03/14 09:16:52;;;;;;;9.13;5.60;;;717.50;870.40;;;;;;5014470;28;20034;-73
2021/03/14 09:19:34;;;;;;;11.82;7.30;;;691.20;921.60;;;;;;5013419;28;20050;-74
2021/03/14 09:22:11;;;;;;;20.73;16.58;;;640.80;947.20;;;;;;5014412;28;20018;-73
2021/03/14 09:24:38;;;;;;;13.13;8.35;;;691.40;921.60;;;;;;5014155;28;20018;-73
2021/03/14 09:27:05;;;;;;;15.50;11.68;;;716.90;921.60;;;;;;5013915;28;20026;-73
2021/03/14 09:29:46;;;;;;;8.65;6.43;;;768.50;844.80;;;;;;5012957;28;20026;-73
2021/03/14 09:32:30;;;;;;;10.90;8.32;;;717.70;870.40;;;;;;5010905;28;20118;-73
2021/03/14 09:35:26;;;;;;;7.80;5.55;;;793.70;844.80;;;;;;5011936;28;20037;-74
2021/03/14 09:37:58;;;;;;;7.15;5.53;;;768.60;819.20;;;;;;5011726;28;20434;-73
2021/03/14 09:40:27;;;;;;;8.70;6.10;;;717.20;896.00;;;;;;5010430;28;20458;-73
2021/03/14 09:43:20;;;;;;;12.52;7.93;;;692.00;870.40;;;;;;5007401;28;20156;-72
2021/03/14 09:45:47;;;;;;;9.35;5.93;;;717.50;896.00;;;;;;5009220;28;20026;-73
2021/03/14 09:48:20;;;;;;;6.13;4.47;;;768.60;844.80;;;;;;5016485;28;20041;-73
2021/03/14 09:50:48;;;;;;;8.55;5.75;;;743.10;870.40;;;;;;5012507;28;20026;-73
2021/03/14 09:53:15;;;;;;;7.85;5.50;;;743.00;870.40;;;;;;5011716;28;20034;-74
2021/03/14 09:55:49;;;;;;;10.90;6.82;;;768.10;844.80;;;;;;5006753;28;20022;-73
2021/03/14 09:58:18;;;;;;;11.20;7.00;;;717.70;870.40;;;;;;5011942;28;20052;-73
2021/03/14 10:00:45;;;;;;;10.23;6.03;;;742.80;896.00;;;;;;5012540;28;20105;-73
2021/03/14 10:03:22;;;;;;;7.28;5.90;;;666.20;947.20;;;;;;5012489;28;20486;-72
2021/03/14 10:05:50;;;;;;;8.57;6.47;;;665.90;972.80;;;;;;5011419;28;20083;-73
2021/03/14 10:08:24;;;;;;;10.43;6.57;;;691.40;947.20;;;;;;5013276;28;20026;-72
2021/03/14 10:10:58;;;;;;;9.20;6.25;;;742.40;921.60;;;;;;5012036;28;20111;-72
2021/03/14 10:13:26;;;;;;;8.55;6.03;;;691.20;921.60;;;;;;5012971;28;20021;-71
2021/03/14 10:15:54;;;;;;;9.10;5.15;;;666.40;947.20;;;;;;5011681;28;20022;-73
2021/03/14 10:18:22;;;;;;;8.88;5.32;;;666.00;972.80;;;;;;5012401;28;20395;-73
2021/03/14 10:20:49;;;;;;;8.85;5.93;;;615.10;1024.00;;;;;;5011821;28;20103;-73
2021/03/14 10:23:23;;;;;;;7.32;5.35;;;640.20;998.40;;;;;;5010075;28;20407;-73
2021/03/14 10:25:49;;;;;;;10.38;7.18;;;666.20;947.20;;;;;;5013043;28;20109;-72
2021/03/14 10:28:19;;;;;;;8.13;4.97;;;692.00;896.00;;;;;;5011789;28;20545;-73
2021/03/14 10:30:47;;;;;;;7.97;4.93;;;716.80;921.60;;;;;;5012333;28;20395;-72
2021/03/14 10:33:15;;;;;;;6.68;4.45;;;742.40;896.00;;;;;;5011330;28;20022;-72
2021/03/14 10:35:43;;;;;;;8.02;5.07;;;743.10;870.40;;;;;;5009699;28;20064;-72
2021/03/14 10:38:17;;;;;;;8.95;5.55;;;743.10;844.80;;;;;;5010575;28;20022;-75
2021/03/14 10:40:43;;;;;;;6.13;4.10;;;742.60;870.40;;;;;;5011390;28;20037;-76
2021/03/14 10:43:24;;;;;;;8.98;5.28;;;717.10;896.00;;;;;;5011210;28;20034;-77
2021/03/14 10:45:52;;;;;;;13.02;7.13;;;691.50;921.60;;;;;;5011934;28;20179;-74
2021/03/14 10:48:26;;;;;;;8.00;5.55;;;691.60;921.60;;;;;;5011725;28;20051;-78
2021/03/14 10:51:03;;;;;;;9.40;6.15;;;665.60;972.80;;;;;;5010016;28;20018;-74
2021/03/14 10:53:29;;;;;;;18.63;10.90;;;666.00;921.60;;;;;;5011178;28;20020;-73
2021/03/14 10:56:11;;;;;;;24.50;13.60;;;666.50;947.20;;;;;;5011656;28;20018;-78
2021/03/14 10:58:41;;;;;;;18.67;11.48;;;717.50;921.60;;;;;;5009425;28;20018;-72
2021/03/14 11:01:11;;;;;;;;;;;666.50;921.60;;;;;;5012396;28;20045;-73
2021/03/14 11:03:40;;;;;;;12.47;7.67;;;691.40;921.60;;;;;;5011000;28;19909;-73
2021/03/14 11:06:16;;;;;;;11.10;7.90;;;716.90;921.60;;;;;;5011850;28;20045;-73
2021/03/14 11:09:04;;;;;;;8.60;5.85;;;742.50;896.00;;;;;;5010938;28;20056;-74
2021/03/14 11:11:44;;;;;;;10.20;6.95;;;743.00;844.80;;;;;;5010242;28;20054;-73
2021/03/14 11:14:28;;;;;;;19.60;14.93;;;794.00;844.80;;;;;;5010428;28;20030;-72
2021/03/14 11:17:07;;;;;;;14.50;10.60;;;845.20;793.60;;;;;;5010676;28;20497;-73
2021/03/14 11:19:35;;;;;;;9.13;6.30;;;845.10;819.20;;;;;;5010428;28;20489;-72
2021/03/14 11:22:01;;;;;;;12.10;7.55;;;845.10;819.20;;;;;;5011544;28;20032;-73
2021/03/14 11:24:26;;;;;;;19.88;14.57;;;845.10;819.20;;;;;;5010839;28;20026;-78
2021/03/14 11:26:52;;;;;;;11.50;8.05;;;793.70;844.80;;;;;;5011795;28;20061;-72
2021/03/14 11:29:18;;;;;;;12.23;8.98;;;717.40;896.00;;;;;;5011188;28;20071;-72
2021/03/14 11:31:44;;;;;;;12.40;8.57;;;665.60;972.80;;;;;;5012130;28;20044;-72
2021/03/14 11:34:10;;;;;;;12.00;7.78;;;640.40;972.80;;;;;;5011342;28;20036;-74
2021/03/14 11:36:35;;;;;;;13.43;6.72;;;615.30;998.40;;;;;;5011456;28;20029;-72
2021/03/14 11:39:02;;;;;;;12.10;7.93;;;614.90;1024.00;;;;;;5010143;28;20101;-72
2021/03/14 11:41:28;;;;;;;11.20;7.78;;;640.70;972.80;;;;;;5011149;28;20061;-72
2021/03/14 11:43:53;;;;;;;8.10;4.88;;;640.20;972.80;;;;;;5010862;28;20084;-73
2021/03/14 11:46:19;;;;;;;8.73;5.72;;;640.20;972.80;;;;;;5011328;28;20088;-74
2021/03/14 11:48:45;;;;;;;12.48;8.20;;;589.30;1100.80;;;;;;5010755;28;20479;-73
2021/03/14 11:51:10;;;;;;;10.85;6.85;;;589.10;1126.40;;;;;;5010522;28;20032;-74
2021/03/14 11:53:36;;;;;;;11.00;7.53;;;538.20;1177.60;;;;;;5010379;28;20033;-71
2021/03/14 11:56:02;;;;;;;22.33;11.50;;;537.70;1203.20;;;;;;5009148;28;20025;-71
2021/03/14 11:58:30;;;;;;;12.70;7.82;;;512.70;1228.80;;;;;;5006544;28;20033;-75
2021/03/14 12:00:56;;;;;;;12.27;7.72;;;512.00;1254.40;;;;;;5009475;28;20029;-73
2021/03/14 12:03:24;;;;;;;9.75;6.63;;;487.30;1280.00;;;;;;5009681;28;20395;-76
2021/03/14 12:05:50;;;;;;;9.45;6.03;;;487.00;1280.00;;;;;;5007244;28;20028;-75
2021/03/14 12:08:16;;;;;;;15.80;10.90;;;487.00;1305.60;;;;;;5009573;28;20052;-74
2021/03/14 12:10:41;;;;;;;10.32;7.05;;;486.70;1331.20;;;;;;5010464;28;20026;-71
2021/03/14 12:13:07;;;;;;;14.63;9.07;;;486.60;1305.60;;;;;;5011036;28;20030;-72
2021/03/14 12:15:33;;;;;;;42.22;22.38;;;486.40;1331.20;;;;;;5009823;28;20111;-73